createdAt,value
2022-10-04T03:55:12.178Z,88.91
2022-10-04T03:58:36.723Z,89.43
2022-10-04T04:02:06.909Z,89.96
2022-10-04T04:05:35.751Z,90.12
2022-10-04T04:09:00.485Z,90.27
2022-10-04T04:12:33.616Z,90.77
2022-10-04T04:16:00.159Z,90.96
2022-10-04T04:19:26.199Z,91.23
2022-10-04T04:22:58.478Z,91.35
2022-10-04T04:26:27.790Z,91.19
2022-10-04T04:29:53.186Z,91.00
2022-10-04T04:33:25.686Z,91.21
2022-10-04T04:36:49.202Z,91.12
2022-10-04T04:40:20.205Z,91.28
2022-10-04T04:43:44.668Z,91.21
2022-10-04T04:47:09.867Z,91.57
2022-10-04T04:50:37.162Z,91.14
2022-10-04T04:54:04.361Z,91.10
2022-10-04T04:57:27.974Z,90.90
2022-10-04T05:00:57.493Z,90.95
2022-10-04T05:04:22.610Z,90.74
2022-10-04T05:07:46.186Z,90.60
2022-10-04T05:11:16.062Z,90.64
2022-10-04T05:14:41.208Z,90.44
2022-10-04T05:18:20.985Z,90.48
2022-10-04T05:21:44.965Z,90.42
2022-10-04T05:25:15.124Z,90.31
2022-10-04T05:28:38.380Z,90.41
2022-10-04T05:32:13.896Z,90.49
2022-10-04T05:35:54.447Z,90.30
2022-10-04T05:39:26.469Z,90.37
2022-10-04T05:42:51.647Z,90.42
2022-10-04T05:46:21.621Z,90.04
2022-10-04T05:49:47.398Z,90.14
2022-10-04T05:53:23.897Z,89.94
2022-10-04T05:57:06.320Z,89.72
2022-10-04T06:00:39.507Z,89.54
2022-10-04T06:04:24.864Z,89.60
2022-10-04T06:07:56.015Z,89.38
2022-10-04T06:11:32.466Z,89.40
2022-10-04T06:15:08.493Z,89.11
2022-10-04T06:18:54.539Z,88.97
2022-10-04T06:22:19.348Z,88.90
2022-10-04T06:25:48.661Z,88.88
2022-10-04T06:29:16.391Z,88.67
2022-10-04T06:32:57.432Z,88.52
2022-10-04T06:36:46.347Z,88.46
2022-10-04T06:40:32.429Z,88.19
2022-10-04T06:44:20.200Z,87.88
2022-10-04T06:48:02.294Z,87.69
2022-10-04T06:51:41.538Z,87.58
2022-10-04T06:55:20.246Z,87.45
2022-10-04T06:59:21.697Z,87.01
2022-10-04T07:02:50.944Z,86.95
2022-10-04T07:06:21.018Z,86.67
2022-10-04T07:09:46.230Z,86.58
2022-10-04T07:13:33.156Z,86.20
2022-10-04T07:17:02.709Z,85.98
2022-10-04T07:20:33.182Z,85.52
2022-10-04T07:24:01.092Z,85.05
2022-10-04T07:27:30.405Z,84.70
2022-10-04T07:30:57.220Z,84.51
2022-10-04T07:34:26.835Z,84.18
2022-10-04T07:37:54.988Z,83.70
2022-10-04T07:41:25.178Z,83.63
2022-10-04T07:44:59.732Z,82.06
2022-10-04T07:48:24.273Z,82.60
2022-10-04T07:52:03.105Z,81.69
2022-10-04T07:55:40.773Z,80.83
2022-10-04T07:59:21.750Z,80.13
2022-10-04T08:02:55.857Z,80.40
2022-10-04T08:06:29.746Z,80.26
2022-10-04T08:10:02.933Z,79.57
2022-10-04T08:13:34.429Z,79.11
2022-10-04T08:17:15.572Z,79.69
2022-10-04T08:20:47.120Z,79.36
2022-10-04T08:24:20.678Z,78.79
2022-10-04T08:28:15.588Z,78.13
2022-10-04T08:31:47.855Z,77.68
2022-10-04T08:35:33.098Z,76.89
2022-10-04T08:38:58.416Z,77.07
2022-10-04T08:42:56.484Z,77.27
2022-10-04T08:46:43.596Z,76.74
2022-10-04T08:50:33.637Z,76.12
2022-10-04T08:54:27.280Z,76.03
2022-10-04T08:58:08.200Z,75.76
2022-10-04T09:01:55.343Z,74.76
2022-10-04T09:05:46.671Z,74.57
2022-10-04T09:09:40.197Z,74.21
2022-10-04T09:13:24.004Z,73.42
2022-10-04T09:16:49.437Z,73.02
2022-10-04T09:20:38.941Z,72.49
2022-10-04T09:24:32.172Z,72.07
2022-10-04T09:28:20.006Z,72.74
2022-10-04T09:32:19.680Z,71.80
2022-10-04T09:35:55.538Z,71.32
2022-10-04T09:39:36.904Z,71.08
2022-10-04T09:43:33.004Z,71.02
2022-10-04T09:47:23.740Z,71.12
2022-10-04T09:51:24.771Z,70.81
2022-10-04T09:55:09.440Z,69.98
2022-10-04T09:58:58.148Z,69.85
2022-10-04T10:02:46.815Z,69.46
2022-10-04T10:06:24.191Z,69.45
2022-10-04T10:10:16.320Z,68.80
2022-10-04T10:14:09.082Z,68.74
2022-10-04T10:17:41.151Z,67.84
2022-10-04T10:21:22.068Z,66.32
2022-10-04T10:25:12.881Z,65.77
2022-10-04T10:29:01.824Z,65.27
2022-10-04T10:32:50.924Z,63.89
2022-10-04T10:36:28.521Z,64.89
2022-10-04T10:40:16.419Z,65.02
2022-10-04T10:43:57.009Z,64.34
2022-10-04T10:47:33.916Z,62.97
2022-10-04T10:51:10.027Z,62.98
2022-10-04T10:54:54.879Z,62.25
2022-10-04T10:58:49.519Z,62.25
2022-10-04T11:02:52.365Z,59.77
2022-10-04T11:06:29.069Z,61.64
2022-10-04T11:10:35.155Z,62.09
2022-10-04T11:14:36.270Z,62.87
2022-10-04T11:18:37.032Z,61.53
2022-10-04T11:22:43.954Z,62.16
2022-10-04T11:26:34.049Z,60.96
2022-10-04T11:30:24.168Z,61.58
2022-10-04T11:34:17.911Z,62.73
2022-10-04T11:37:53.338Z,61.72
2022-10-04T11:41:26.742Z,61.26
2022-10-04T11:45:20.358Z,59.69
2022-10-04T11:48:59.139Z,57.85
2022-10-04T11:53:03.884Z,59.09
2022-10-04T11:56:39.750Z,57.83
2022-10-04T12:00:11.820Z,59.42
2022-10-04T12:04:02.656Z,60.12
2022-10-04T12:07:42.255Z,59.78
2022-10-04T12:11:50.440Z,59.21
2022-10-04T12:15:38.397Z,58.49
2022-10-04T12:19:44.660Z,57.89
2022-10-04T12:23:42.568Z,58.24
2022-10-04T12:27:29.732Z,58.36
2022-10-04T12:31:13.559Z,57.42
2022-10-04T12:34:47.220Z,57.06
2022-10-04T12:38:26.182Z,56.24
2022-10-04T12:41:57.531Z,56.33
2022-10-04T12:45:34.473Z,55.86
2022-10-04T12:49:08.347Z,56.13
2022-10-04T12:52:45.493Z,55.58
2022-10-04T12:56:21.284Z,56.40
2022-10-04T12:59:54.632Z,56.53
2022-10-04T13:03:39.545Z,55.85
2022-10-04T13:07:28.153Z,55.99
2022-10-04T13:11:09.981Z,55.99
2022-10-04T13:14:55.098Z,55.94
2022-10-04T13:18:27.183Z,56.45
2022-10-04T13:22:06.592Z,57.49
2022-10-04T13:25:45.086Z,56.76
2022-10-04T13:29:20.051Z,54.15
2022-10-04T13:32:51.371Z,56.26
2022-10-04T13:36:23.330Z,55.97
2022-10-04T13:40:16.467Z,56.19
2022-10-04T13:44:00.717Z,56.89
2022-10-04T13:47:39.556Z,56.11
2022-10-04T13:51:32.091Z,56.47
2022-10-04T13:55:28.735Z,56.01
2022-10-04T13:58:59.759Z,56.52
2022-10-04T14:03:01.483Z,54.77
2022-10-04T14:07:03.670Z,54.78
2022-10-04T14:10:55.567Z,55.68
2022-10-04T14:14:48.760Z,56.04
2022-10-04T14:19:00.158Z,55.45
2022-10-04T14:22:58.667Z,55.74
2022-10-04T14:26:45.737Z,55.95
2022-10-04T14:30:22.528Z,56.03
2022-10-04T14:34:15.475Z,55.70
2022-10-04T14:38:16.257Z,55.94
2022-10-04T14:42:24.165Z,56.42
2022-10-04T14:46:06.593Z,56.85
2022-10-04T14:49:51.618Z,57.14
2022-10-04T14:53:23.027Z,57.33
2022-10-04T14:57:01.050Z,57.57
2022-10-04T15:00:32.152Z,57.53
2022-10-04T15:04:13.230Z,57.73
2022-10-04T15:07:39.901Z,57.94
2022-10-04T15:11:07.480Z,58.15
2022-10-04T15:14:44.541Z,58.00
2022-10-04T15:18:27.443Z,58.27
2022-10-04T15:22:07.039Z,58.73
2022-10-04T15:25:43.017Z,58.97
2022-10-04T15:29:23.099Z,59.12
2022-10-04T15:32:53.792Z,59.27
2022-10-04T15:36:46.654Z,59.46
2022-10-04T15:40:23.596Z,59.63
2022-10-04T15:44:12.078Z,59.82
2022-10-04T15:47:50.956Z,59.96
2022-10-04T15:51:34.963Z,60.27
2022-10-04T15:55:27.482Z,60.47
2022-10-04T15:59:06.709Z,60.79
2022-10-04T16:02:54.963Z,61.05
2022-10-04T16:06:23.793Z,61.30
2022-10-04T16:09:55.587Z,61.49
2022-10-04T16:13:38.526Z,61.69
2022-10-04T16:17:43.394Z,61.94
2022-10-04T16:21:18.677Z,62.16
2022-10-04T16:24:46.142Z,62.51
2022-10-04T16:28:19.770Z,62.72
2022-10-04T16:31:50.387Z,63.11
2022-10-04T16:35:26.902Z,63.24
2022-10-04T16:39:13.214Z,63.64
2022-10-04T16:42:54.335Z,63.89
2022-10-04T16:46:29.980Z,64.18
2022-10-04T16:49:56.516Z,64.49
2022-10-04T16:53:31.387Z,64.74
2022-10-04T16:57:15.581Z,65.04
2022-10-04T17:00:39.416Z,65.38
2022-10-04T17:04:16.902Z,65.63
2022-10-04T17:08:10.375Z,65.73
2022-10-04T17:11:42.707Z,65.89
2022-10-04T17:15:26.928Z,66.42
2022-10-04T17:18:54.726Z,66.51
2022-10-04T17:22:33.615Z,66.82
2022-10-04T17:26:07.586Z,67.14
2022-10-04T17:29:44.161Z,67.25
2022-10-04T17:33:23.646Z,67.52
2022-10-04T17:36:49.543Z,67.77
2022-10-04T17:40:38.773Z,68.08
2022-10-04T17:44:27.858Z,68.45
2022-10-04T17:48:18.936Z,68.69
2022-10-04T17:52:04.826Z,68.89
2022-10-04T17:55:38.632Z,69.21
2022-10-04T17:59:12.254Z,69.57
2022-10-04T18:02:52.240Z,69.58
2022-10-04T18:06:29.317Z,70.01
2022-10-04T18:09:54.720Z,70.26
2022-10-04T18:13:26.473Z,70.37
2022-10-04T18:16:54.295Z,70.57
2022-10-04T18:20:30.002Z,70.82
2022-10-04T18:23:55.590Z,70.85
2022-10-04T18:27:21.926Z,71.11
2022-10-04T18:30:59.523Z,71.57
2022-10-04T18:34:30.498Z,71.71
2022-10-04T18:37:56.525Z,71.84
2022-10-04T18:41:22.756Z,72.03
2022-10-04T18:44:50.664Z,72.26
2022-10-04T18:48:36.746Z,72.29
2022-10-04T18:52:15.558Z,72.57
2022-10-04T18:55:50.238Z,72.59
2022-10-04T18:59:49.514Z,72.59
2022-10-04T19:03:25.657Z,72.70
2022-10-04T19:06:49.746Z,72.91
2022-10-04T19:10:21.164Z,73.03
2022-10-04T19:13:54.112Z,73.09
2022-10-04T19:17:26.674Z,73.16
2022-10-04T19:20:59.739Z,73.28
2022-10-04T19:24:47.768Z,73.26
2022-10-04T19:28:18.568Z,73.51
2022-10-04T19:31:50.401Z,73.67
2022-10-04T19:35:25.260Z,73.91
2022-10-04T19:39:01.011Z,74.04
2022-10-04T19:42:33.830Z,74.19
2022-10-04T19:46:11.280Z,74.29
2022-10-04T19:49:43.740Z,74.53
2022-10-04T19:53:13.090Z,74.68
2022-10-04T19:56:42.783Z,74.85
2022-10-04T20:00:12.014Z,75.25
2022-10-04T20:03:35.281Z,75.45
2022-10-04T20:07:00.243Z,75.51
2022-10-04T20:10:32.925Z,75.65
2022-10-04T20:14:32.489Z,75.82
2022-10-04T20:17:57.525Z,75.86
2022-10-04T20:21:30.591Z,76.14
2022-10-04T20:24:55.692Z,76.05
2022-10-04T20:28:41.602Z,76.14
2022-10-04T20:32:06.823Z,76.33
2022-10-04T20:36:05.753Z,76.57
2022-10-04T20:39:59.003Z,76.78
2022-10-04T20:43:28.902Z,77.01
2022-10-04T20:46:51.308Z,77.25
2022-10-04T20:50:19.721Z,77.06
2022-10-04T20:53:46.134Z,77.03
2022-10-04T20:57:13.426Z,77.15
2022-10-04T21:00:50.347Z,77.32
2022-10-04T21:04:15.307Z,77.29
2022-10-04T21:07:38.680Z,77.48
2022-10-04T21:11:20.048Z,77.79
2022-10-04T21:15:03.053Z,77.89
2022-10-04T21:18:26.364Z,77.92
2022-10-04T21:21:49.842Z,78.04
2022-10-04T21:25:31.256Z,78.03
2022-10-04T21:28:56.551Z,78.34
2022-10-04T21:32:20.224Z,78.52
2022-10-04T21:35:43.508Z,78.63
2022-10-04T21:39:07.155Z,78.66
2022-10-04T21:42:30.461Z,78.83
2022-10-04T21:45:53.769Z,78.91
2022-10-04T21:49:17.261Z,79.25
2022-10-04T21:52:40.874Z,79.46
2022-10-04T21:56:06.915Z,79.35
2022-10-04T21:59:30.311Z,79.42
2022-10-04T22:02:53.930Z,79.77
2022-10-04T22:06:17.138Z,79.68
2022-10-04T22:09:40.344Z,80.19
2022-10-04T22:13:03.864Z,80.27
2022-10-04T22:16:27.613Z,80.49
2022-10-04T22:19:52.481Z,80.75
2022-10-04T22:23:18.270Z,81.07
2022-10-04T22:26:41.501Z,81.31
2022-10-04T22:30:11.236Z,81.60
2022-10-04T22:33:36.106Z,81.69
2022-10-04T22:36:59.457Z,81.93
2022-10-04T22:40:25.008Z,82.03
2022-10-04T22:43:49.915Z,82.30
2022-10-04T22:47:15.405Z,82.22
2022-10-04T22:50:39.212Z,82.34
